sensor_id;sensor_type;location;lat;lon;timestamp;pressure;altitude;pressure_sealevel;temperature;humidity
4590;BME280;2307;48.448;9.216;2023-04-04T00:00:25;96048.22;;;0.96;57.77
4590;BME280;2307;48.448;9.216;2023-04-04T00:02:51;96052.00;;;1.01;58.94
4590;BME280;2307;48.448;9.216;2023-04-04T00:05:18;96046.13;;;0.91;58.75
4590;BME280;2307;48.448;9.216;2023-04-04T00:07:44;96042.19;;;0.95;57.10
4590;BME280;2307;48.448;9.216;2023-04-04T00:10:12;96036.69;;;0.90;55.47
4590;BME280;2307;48.448;9.216;2023-04-04T00:12:38;96034.91;;;0.91;56.46
4590;BME280;2307;48.448;9.216;2023-04-04T00:15:05;96027.75;;;0.85;57.05
4590;BME280;2307;48.448;9.216;2023-04-04T00:17:32;96035.69;;;0.83;58.00
4590;BME280;2307;48.448;9.216;2023-04-04T00:19:59;96025.28;;;0.83;55.89
4590;BME280;2307;48.448;9.216;2023-04-04T00:22:25;96020.41;;;0.72;57.33
4590;BME280;2307;48.448;9.216;2023-04-04T00:24:52;96018.75;;;0.71;58.07
4590;BME280;2307;48.448;9.216;2023-04-04T00:27:20;96028.47;;;0.61;56.73
4590;BME280;2307;48.448;9.216;2023-04-04T00:29:46;96028.78;;;0.58;57.43
4590;BME280;2307;48.448;9.216;2023-04-04T00:32:12;96023.97;;;0.71;56.62
4590;BME280;2307;48.448;9.216;2023-04-04T00:34:39;96015.06;;;0.82;55.97
4590;BME280;2307;48.448;9.216;2023-04-04T00:37:05;96018.75;;;0.63;56.55
4590;BME280;2307;48.448;9.216;2023-04-04T00:39:31;96017.75;;;0.64;56.54
4590;BME280;2307;48.448;9.216;2023-04-04T00:41:58;96009.00;;;0.73;56.71
4590;BME280;2307;48.448;9.216;2023-04-04T00:44:26;96007.69;;;0.61;57.74
4590;BME280;2307;48.448;9.216;2023-04-04T00:46:54;96000.53;;;0.55;58.88
4590;BME280;2307;48.448;9.216;2023-04-04T00:49:20;96005.25;;;0.60;57.62
4590;BME280;2307;48.448;9.216;2023-04-04T00:51:47;96008.13;;;0.48;59.49
4590;BME280;2307;48.448;9.216;2023-04-04T00:54:13;95997.91;;;0.47;61.34
4590;BME280;2307;48.448;9.216;2023-04-04T00:56:40;95997.56;;;0.42;60.42
4590;BME280;2307;48.448;9.216;2023-04-04T00:59:06;95991.72;;;0.48;60.08
4590;BME280;2307;48.448;9.216;2023-04-04T01:01:34;95989.75;;;0.42;59.10
4590;BME280;2307;48.448;9.216;2023-04-04T01:04:01;95994.13;;;0.41;59.23
4590;BME280;2307;48.448;9.216;2023-04-04T01:06:28;95993.00;;;0.36;60.61
4590;BME280;2307;48.448;9.216;2023-04-04T01:08:56;95989.28;;;0.46;60.76
4590;BME280;2307;48.448;9.216;2023-04-04T01:11:23;95992.03;;;0.37;60.32
4590;BME280;2307;48.448;9.216;2023-04-04T01:13:49;95998.34;;;0.34;60.44
4590;BME280;2307;48.448;9.216;2023-04-04T01:16:16;95987.47;;;0.39;60.81
4590;BME280;2307;48.448;9.216;2023-04-04T01:18:43;95985.00;;;0.29;60.83
4590;BME280;2307;48.448;9.216;2023-04-04T01:21:11;95997.59;;;0.16;61.87
4590;BME280;2307;48.448;9.216;2023-04-04T01:23:43;95988.72;;;0.19;61.43
4590;BME280;2307;48.448;9.216;2023-04-04T01:26:12;95980.22;;;0.09;63.71
4590;BME280;2307;48.448;9.216;2023-04-04T01:28:38;95978.59;;;0.08;64.62
4590;BME280;2307;48.448;9.216;2023-04-04T01:31:05;95983.97;;;0.14;64.34
4590;BME280;2307;48.448;9.216;2023-04-04T01:33:33;95965.91;;;0.05;67.53
4590;BME280;2307;48.448;9.216;2023-04-04T01:36:03;95971.28;;;0.03;64.40
4590;BME280;2307;48.448;9.216;2023-04-04T01:38:34;95961.50;;;-0.03;66.44
4590;BME280;2307;48.448;9.216;2023-04-04T01:41:06;95953.53;;;-0.10;65.94
4590;BME280;2307;48.448;9.216;2023-04-04T01:43:34;95964.16;;;0.05;64.88
4590;BME280;2307;48.448;9.216;2023-04-04T01:46:01;95965.59;;;0.08;65.70
4590;BME280;2307;48.448;9.216;2023-04-04T01:48:28;95970.84;;;0.16;65.73
4590;BME280;2307;48.448;9.216;2023-04-04T01:50:54;95963.38;;;0.13;64.49
4590;BME280;2307;48.448;9.216;2023-04-04T01:53:22;95960.91;;;0.11;65.92
4590;BME280;2307;48.448;9.216;2023-04-04T01:55:48;95967.56;;;0.14;66.63
4590;BME280;2307;48.448;9.216;2023-04-04T01:58:14;95969.16;;;-0.02;65.19
4590;BME280;2307;48.448;9.216;2023-04-04T02:00:42;95969.66;;;0.02;66.88
4590;BME280;2307;48.448;9.216;2023-04-04T02:03:08;95977.19;;;-0.13;68.08
4590;BME280;2307;48.448;9.216;2023-04-04T02:05:35;95983.19;;;-0.12;68.78
4590;BME280;2307;48.448;9.216;2023-04-04T02:08:01;95975.28;;;-0.03;67.04
4590;BME280;2307;48.448;9.216;2023-04-04T02:10:27;95975.66;;;0.03;66.75
4590;BME280;2307;48.448;9.216;2023-04-04T02:12:55;95981.38;;;0.06;67.12
4590;BME280;2307;48.448;9.216;2023-04-04T02:15:22;95988.59;;;-0.06;67.57
4590;BME280;2307;48.448;9.216;2023-04-04T02:17:50;95985.16;;;-0.06;67.93
4590;BME280;2307;48.448;9.216;2023-04-04T02:20:17;95986.34;;;-0.01;68.50
4590;BME280;2307;48.448;9.216;2023-04-04T02:22:49;95991.56;;;-0.01;68.99
4590;BME280;2307;48.448;9.216;2023-04-04T02:25:15;95984.09;;;0.05;67.99
4590;BME280;2307;48.448;9.216;2023-04-04T02:27:41;95975.50;;;0.04;67.96
4590;BME280;2307;48.448;9.216;2023-04-04T02:30:08;95980.34;;;-0.01;69.08
4590;BME280;2307;48.448;9.216;2023-04-04T02:32:35;95983.69;;;-0.17;69.34
4590;BME280;2307;48.448;9.216;2023-04-04T02:35:03;95979.09;;;-0.23;70.43
4590;BME280;2307;48.448;9.216;2023-04-04T02:37:30;95971.94;;;-0.29;70.94
4590;BME280;2307;48.448;9.216;2023-04-04T02:39:56;95976.19;;;-0.20;72.27
4590;BME280;2307;48.448;9.216;2023-04-04T02:42:23;95974.59;;;-0.13;72.08
4590;BME280;2307;48.448;9.216;2023-04-04T02:44:49;95976.50;;;-0.23;71.12
4590;BME280;2307;48.448;9.216;2023-04-04T02:47:15;95968.31;;;-0.36;70.18
4590;BME280;2307;48.448;9.216;2023-04-04T02:49:42;95973.81;;;-0.39;72.60
4590;BME280;2307;48.448;9.216;2023-04-04T02:52:09;95964.19;;;-0.21;72.42
4590;BME280;2307;48.448;9.216;2023-04-04T02:54:36;95971.53;;;-0.42;75.54
4590;BME280;2307;48.448;9.216;2023-04-04T02:57:02;95960.53;;;-0.36;75.36
4590;BME280;2307;48.448;9.216;2023-04-04T02:59:29;95968.56;;;-0.21;74.77
4590;BME280;2307;48.448;9.216;2023-04-04T03:01:55;95965.97;;;-0.21;73.39
4590;BME280;2307;48.448;9.216;2023-04-04T03:04:22;95966.34;;;-0.42;77.18
4590;BME280;2307;48.448;9.216;2023-04-04T03:06:48;95968.56;;;-0.47;77.69
4590;BME280;2307;48.448;9.216;2023-04-04T03:09:16;95958.16;;;-0.55;76.48
4590;BME280;2307;48.448;9.216;2023-04-04T03:11:42;95961.97;;;-0.41;75.87
4590;BME280;2307;48.448;9.216;2023-04-04T03:14:09;95962.72;;;-0.49;77.54
4590;BME280;2307;48.448;9.216;2023-04-04T03:16:36;95950.97;;;-0.35;79.02
4590;BME280;2307;48.448;9.216;2023-04-04T03:19:02;95950.41;;;-0.47;78.26
4590;BME280;2307;48.448;9.216;2023-04-04T03:21:28;95956.06;;;-0.51;80.29
4590;BME280;2307;48.448;9.216;2023-04-04T03:23:55;95956.47;;;-0.64;81.07
4590;BME280;2307;48.448;9.216;2023-04-04T03:26:23;95952.03;;;-0.46;78.57
4590;BME280;2307;48.448;9.216;2023-04-04T03:28:52;95957.28;;;-0.64;80.29
4590;BME280;2307;48.448;9.216;2023-04-04T03:31:18;95958.50;;;-0.50;79.72
4590;BME280;2307;48.448;9.216;2023-04-04T03:33:45;95952.28;;;-0.57;79.25
4590;BME280;2307;48.448;9.216;2023-04-04T03:36:12;95954.53;;;-0.62;82.52
4590;BME280;2307;48.448;9.216;2023-04-04T03:38:38;95954.28;;;-0.77;82.47
4590;BME280;2307;48.448;9.216;2023-04-04T03:41:05;95958.19;;;-0.73;84.67
4590;BME280;2307;48.448;9.216;2023-04-04T03:43:33;95956.34;;;-0.80;84.68
4590;BME280;2307;48.448;9.216;2023-04-04T03:45:59;95954.63;;;-0.72;85.19
4590;BME280;2307;48.448;9.216;2023-04-04T03:48:27;95953.59;;;-0.79;83.40
4590;BME280;2307;48.448;9.216;2023-04-04T03:50:53;95952.00;;;-0.80;84.69
4590;BME280;2307;48.448;9.216;2023-04-04T03:53:21;95954.13;;;-0.75;84.84
4590;BME280;2307;48.448;9.216;2023-04-04T03:55:48;95949.09;;;-0.94;87.24
4590;BME280;2307;48.448;9.216;2023-04-04T03:58:15;95949.84;;;-0.84;86.02
4590;BME280;2307;48.448;9.216;2023-04-04T04:00:42;95951.00;;;-0.79;86.95
4590;BME280;2307;48.448;9.216;2023-04-04T04:03:09;95953.03;;;-0.90;86.96
4590;BME280;2307;48.448;9.216;2023-04-04T04:05:35;95952.59;;;-0.86;85.95
4590;BME280;2307;48.448;9.216;2023-04-04T04:08:02;95955.69;;;-0.82;86.01
4590;BME280;2307;48.448;9.216;2023-04-04T04:10:28;95953.84;;;-0.90;87.17
4590;BME280;2307;48.448;9.216;2023-04-04T04:12:54;95947.50;;;-0.95;88.16
4590;BME280;2307;48.448;9.216;2023-04-04T04:15:21;95949.84;;;-0.84;87.00
4590;BME280;2307;48.448;9.216;2023-04-04T04:17:49;95949.84;;;-0.84;87.11
4590;BME280;2307;48.448;9.216;2023-04-04T04:20:15;95952.81;;;-0.97;88.33
4590;BME280;2307;48.448;9.216;2023-04-04T04:22:44;95952.91;;;-1.07;89.92
4590;BME280;2307;48.448;9.216;2023-04-04T04:25:10;95956.16;;;-1.04;89.34
4590;BME280;2307;48.448;9.216;2023-04-04T04:27:36;95953.44;;;-1.03;91.00
4590;BME280;2307;48.448;9.216;2023-04-04T04:30:03;95958.44;;;-1.01;91.33
4590;BME280;2307;48.448;9.216;2023-04-04T04:32:30;95959.56;;;-0.86;91.68
4590;BME280;2307;48.448;9.216;2023-04-04T04:34:57;95959.19;;;-0.91;89.35
4590;BME280;2307;48.448;9.216;2023-04-04T04:37:24;95963.56;;;-1.10;90.81
4590;BME280;2307;48.448;9.216;2023-04-04T04:39:51;95966.03;;;-1.08;92.57
4590;BME280;2307;48.448;9.216;2023-04-04T04:42:17;95957.75;;;-1.12;91.48
4590;BME280;2307;48.448;9.216;2023-04-04T04:44:44;95961.03;;;-1.01;92.31
4590;BME280;2307;48.448;9.216;2023-04-04T04:47:10;95967.00;;;-1.09;90.09
4590;BME280;2307;48.448;9.216;2023-04-04T04:49:36;95965.88;;;-1.07;89.39
4590;BME280;2307;48.448;9.216;2023-04-04T04:52:04;95966.81;;;-1.08;90.79
4590;BME280;2307;48.448;9.216;2023-04-04T04:54:32;95973.13;;;-0.92;91.65
4590;BME280;2307;48.448;9.216;2023-04-04T04:56:59;95968.25;;;-0.95;91.62
4590;BME280;2307;48.448;9.216;2023-04-04T04:59:26;95971.69;;;-1.04;89.88
4590;BME280;2307;48.448;9.216;2023-04-04T05:01:53;95968.81;;;-1.01;90.76
4590;BME280;2307;48.448;9.216;2023-04-04T05:04:19;95970.69;;;-1.12;91.93
4590;BME280;2307;48.448;9.216;2023-04-04T05:06:46;95968.69;;;-1.00;92.74
4590;BME280;2307;48.448;9.216;2023-04-04T05:09:14;95975.50;;;-1.17;92.37
4590;BME280;2307;48.448;9.216;2023-04-04T05:11:40;95976.19;;;-1.15;92.61
4590;BME280;2307;48.448;9.216;2023-04-04T05:14:07;95979.38;;;-1.21;93.76
4590;BME280;2307;48.448;9.216;2023-04-04T05:16:33;95973.78;;;-1.26;93.79
4590;BME280;2307;48.448;9.216;2023-04-04T05:19:00;95973.38;;;-1.21;92.69
4590;BME280;2307;48.448;9.216;2023-04-04T05:21:26;95967.66;;;-1.25;92.39
4590;BME280;2307;48.448;9.216;2023-04-04T05:23:53;95979.94;;;-1.27;92.09
4590;BME280;2307;48.448;9.216;2023-04-04T05:26:21;95973.13;;;-1.28;92.23
4590;BME280;2307;48.448;9.216;2023-04-04T05:28:48;95972.63;;;-1.31;92.48
4590;BME280;2307;48.448;9.216;2023-04-04T05:31:15;95978.91;;;-1.34;91.69
4590;BME280;2307;48.448;9.216;2023-04-04T05:33:41;95982.16;;;-1.32;92.82
4590;BME280;2307;48.448;9.216;2023-04-04T05:36:08;95978.31;;;-1.28;93.23
4590;BME280;2307;48.448;9.216;2023-04-04T05:38:35;95978.84;;;-1.24;92.22
4590;BME280;2307;48.448;9.216;2023-04-04T05:41:01;95979.38;;;-1.21;91.59
4590;BME280;2307;48.448;9.216;2023-04-04T05:43:29;95980.31;;;-1.22;90.60
4590;BME280;2307;48.448;9.216;2023-04-04T05:45:55;95972.25;;;-1.19;89.17
4590;BME280;2307;48.448;9.216;2023-04-04T05:48:22;95975.28;;;-1.23;88.88
4590;BME280;2307;48.448;9.216;2023-04-04T05:50:48;95978.78;;;-1.15;88.57
4590;BME280;2307;48.448;9.216;2023-04-04T05:53:15;95981.28;;;-1.23;88.60
4590;BME280;2307;48.448;9.216;2023-04-04T05:55:41;95974.38;;;-1.14;88.86
4590;BME280;2307;48.448;9.216;2023-04-04T05:58:08;95982.38;;;-1.08;85.73
4590;BME280;2307;48.448;9.216;2023-04-04T06:00:35;95986.59;;;-1.07;85.13
4590;BME280;2307;48.448;9.216;2023-04-04T06:03:02;95976.75;;;-1.03;85.02
4590;BME280;2307;48.448;9.216;2023-04-04T06:05:28;95969.50;;;-0.99;84.24
4590;BME280;2307;48.448;9.216;2023-04-04T06:07:55;95974.00;;;-1.01;86.38
4590;BME280;2307;48.448;9.216;2023-04-04T06:10:21;95968.31;;;-1.05;85.63
4590;BME280;2307;48.448;9.216;2023-04-04T06:12:47;95972.53;;;-0.86;85.08
4590;BME280;2307;48.448;9.216;2023-04-04T06:15:14;95975.25;;;-0.88;80.71
4590;BME280;2307;48.448;9.216;2023-04-04T06:17:42;95972.06;;;-0.82;82.59
4590;BME280;2307;48.448;9.216;2023-04-04T06:20:09;95974.22;;;-0.77;82.62
4590;BME280;2307;48.448;9.216;2023-04-04T06:22:35;95978.63;;;-0.70;82.83
4590;BME280;2307;48.448;9.216;2023-04-04T06:25:02;95979.22;;;-0.76;80.75
4590;BME280;2307;48.448;9.216;2023-04-04T06:27:28;95975.84;;;-0.76;80.38
4590;BME280;2307;48.448;9.216;2023-04-04T06:29:55;95976.91;;;-0.61;80.12
4590;BME280;2307;48.448;9.216;2023-04-04T06:32:21;95982.97;;;-0.52;80.45
4590;BME280;2307;48.448;9.216;2023-04-04T06:34:49;95983.13;;;-0.54;79.44
4590;BME280;2307;48.448;9.216;2023-04-04T06:37:15;95983.41;;;-0.57;79.02
4590;BME280;2307;48.448;9.216;2023-04-04T06:39:42;95988.13;;;-0.61;78.11
4590;BME280;2307;48.448;9.216;2023-04-04T06:42:08;95979.13;;;-0.66;78.58
4590;BME280;2307;48.448;9.216;2023-04-04T06:44:36;95982.53;;;-0.66;77.03
4590;BME280;2307;48.448;9.216;2023-04-04T06:47:02;95980.03;;;-0.58;77.59
4590;BME280;2307;48.448;9.216;2023-04-04T06:49:29;95983.81;;;-0.70;79.57
4590;BME280;2307;48.448;9.216;2023-04-04T06:51:57;95990.03;;;-0.63;78.83
4590;BME280;2307;48.448;9.216;2023-04-04T06:54:24;95985.03;;;-0.56;78.26
4590;BME280;2307;48.448;9.216;2023-04-04T06:56:51;95982.53;;;-0.48;75.51
4590;BME280;2307;48.448;9.216;2023-04-04T06:59:17;95981.44;;;-0.37;77.36
4590;BME280;2307;48.448;9.216;2023-04-04T07:01:44;95981.31;;;-0.36;77.01
4590;BME280;2307;48.448;9.216;2023-04-04T07:04:10;95976.81;;;-0.26;75.97
4590;BME280;2307;48.448;9.216;2023-04-04T07:06:37;95976.50;;;-0.23;77.14
4590;BME280;2307;48.448;9.216;2023-04-04T07:09:04;95985.28;;;-0.16;76.47
4590;BME280;2307;48.448;9.216;2023-04-04T07:11:31;95978.13;;;-0.22;75.31
4590;BME280;2307;48.448;9.216;2023-04-04T07:13:58;95974.56;;;-0.21;75.95
4590;BME280;2307;48.448;9.216;2023-04-04T07:16:24;95973.00;;;-0.06;77.84
4590;BME280;2307;48.448;9.216;2023-04-04T07:18:50;95982.94;;;-0.01;76.11
4590;BME280;2307;48.448;9.216;2023-04-04T07:21:17;95973.41;;;0.08;73.99
4590;BME280;2307;48.448;9.216;2023-04-04T07:23:44;95983.16;;;0.14;72.92
4590;BME280;2307;48.448;9.216;2023-04-04T07:26:12;95977.22;;;0.29;73.28
4590;BME280;2307;48.448;9.216;2023-04-04T07:28:38;95969.41;;;0.21;71.48
4590;BME280;2307;48.448;9.216;2023-04-04T07:31:05;95977.69;;;0.25;72.28
4590;BME280;2307;48.448;9.216;2023-04-04T07:33:31;95967.63;;;0.30;70.97
4590;BME280;2307;48.448;9.216;2023-04-04T07:35:59;95969.28;;;0.31;69.51
4590;BME280;2307;48.448;9.216;2023-04-04T07:38:26;95972.38;;;0.34;68.46
4590;BME280;2307;48.448;9.216;2023-04-04T07:40:52;95973.84;;;0.45;67.34
4590;BME280;2307;48.448;9.216;2023-04-04T07:43:21;95971.94;;;0.55;67.69
4590;BME280;2307;48.448;9.216;2023-04-04T07:45:47;95980.69;;;0.54;64.14
4590;BME280;2307;48.448;9.216;2023-04-04T07:48:14;95979.03;;;0.45;64.17
4590;BME280;2307;48.448;9.216;2023-04-04T07:50:40;95972.25;;;0.52;64.23
4590;BME280;2307;48.448;9.216;2023-04-04T07:53:06;95972.88;;;0.46;64.42
4590;BME280;2307;48.448;9.216;2023-04-04T07:55:33;95978.09;;;0.54;63.87
4590;BME280;2307;48.448;9.216;2023-04-04T07:57:59;95981.88;;;0.60;64.34
4590;BME280;2307;48.448;9.216;2023-04-04T08:00:27;95983.31;;;0.62;62.95
4590;BME280;2307;48.448;9.216;2023-04-04T08:02:54;95980.72;;;0.70;63.93
4590;BME280;2307;48.448;9.216;2023-04-04T08:05:22;95982.88;;;0.83;63.37
4590;BME280;2307;48.448;9.216;2023-04-04T08:07:49;95981.56;;;0.87;63.32
4590;BME280;2307;48.448;9.216;2023-04-04T08:10:16;95988.25;;;0.89;64.26
4590;BME280;2307;48.448;9.216;2023-04-04T08:12:43;95982.56;;;0.94;64.08
4590;BME280;2307;48.448;9.216;2023-04-04T08:15:10;95981.75;;;0.93;62.85
4590;BME280;2307;48.448;9.216;2023-04-04T08:17:38;95989.72;;;1.00;63.02
4590;BME280;2307;48.448;9.216;2023-04-04T08:20:05;95984.06;;;1.04;62.75
4590;BME280;2307;48.448;9.216;2023-04-04T08:22:31;95988.59;;;1.11;62.20
4590;BME280;2307;48.448;9.216;2023-04-04T08:24:58;95986.97;;;1.10;62.12
4590;BME280;2307;48.448;9.216;2023-04-04T08:27:24;95986.50;;;1.14;59.81
4590;BME280;2307;48.448;9.216;2023-04-04T08:29:51;95996.22;;;1.12;61.03
4590;BME280;2307;48.448;9.216;2023-04-04T08:32:17;95987.47;;;1.13;61.73
4590;BME280;2307;48.448;9.216;2023-04-04T08:34:45;95989.56;;;1.18;62.36
4590;BME280;2307;48.448;9.216;2023-04-04T08:37:12;95986.97;;;1.26;60.41
4590;BME280;2307;48.448;9.216;2023-04-04T08:39:38;95990.22;;;1.36;60.71
4590;BME280;2307;48.448;9.216;2023-04-04T08:42:05;95990.22;;;1.44;61.67
4590;BME280;2307;48.448;9.216;2023-04-04T08:44:33;95997.22;;;1.51;60.23
4590;BME280;2307;48.448;9.216;2023-04-04T08:47:01;95997.19;;;1.68;57.72
4590;BME280;2307;48.448;9.216;2023-04-04T08:49:29;95996.38;;;1.67;59.40
4590;BME280;2307;48.448;9.216;2023-04-04T08:51:58;95985.31;;;1.73;56.65
4590;BME280;2307;48.448;9.216;2023-04-04T08:54:24;95991.16;;;1.75;57.08
4590;BME280;2307;48.448;9.216;2023-04-04T08:56:51;95995.38;;;1.76;57.22
4590;BME280;2307;48.448;9.216;2023-04-04T08:59:18;95982.03;;;1.79;56.62
4590;BME280;2307;48.448;9.216;2023-04-04T09:01:44;95982.00;;;1.87;58.08
4590;BME280;2307;48.448;9.216;2023-04-04T09:04:11;95969.13;;;2.02;57.49
4590;BME280;2307;48.448;9.216;2023-04-04T09:06:37;95986.38;;;2.03;55.05
4590;BME280;2307;48.448;9.216;2023-04-04T09:09:05;95994.16;;;2.11;55.56
4590;BME280;2307;48.448;9.216;2023-04-04T09:11:32;95982.91;;;2.19;56.99
4590;BME280;2307;48.448;9.216;2023-04-04T09:14:00;95991.84;;;2.24;56.84
4590;BME280;2307;48.448;9.216;2023-04-04T09:16:28;95985.28;;;2.36;53.70
4590;BME280;2307;48.448;9.216;2023-04-04T09:18:55;95994.84;;;2.44;53.97
4590;BME280;2307;48.448;9.216;2023-04-04T09:21:21;95994.03;;;2.43;54.33
4590;BME280;2307;48.448;9.216;2023-04-04T09:23:56;95996.25;;;2.54;53.58
4590;BME280;2307;48.448;9.216;2023-04-04T09:26:24;95989.88;;;2.57;51.72
4590;BME280;2307;48.448;9.216;2023-04-04T09:28:51;95991.31;;;2.67;52.16
4590;BME280;2307;48.448;9.216;2023-04-04T09:31:17;95994.88;;;2.66;52.58
4590;BME280;2307;48.448;9.216;2023-04-04T09:33:44;96003.88;;;2.64;53.26
4590;BME280;2307;48.448;9.216;2023-04-04T09:36:13;95997.81;;;2.72;53.55
4590;BME280;2307;48.448;9.216;2023-04-04T09:38:40;95991.56;;;2.81;53.33
4590;BME280;2307;48.448;9.216;2023-04-04T09:41:08;96002.81;;;2.81;52.37
4590;BME280;2307;48.448;9.216;2023-04-04T09:43:36;95992.03;;;2.84;53.58
4590;BME280;2307;48.448;9.216;2023-04-04T09:46:04;95989.34;;;2.92;55.76
4590;BME280;2307;48.448;9.216;2023-04-04T09:48:32;95990.88;;;2.87;52.66
4590;BME280;2307;48.448;9.216;2023-04-04T09:50:58;95992.56;;;3.02;54.21
4590;BME280;2307;48.448;9.216;2023-04-04T09:53:25;95995.13;;;3.10;54.65
4590;BME280;2307;48.448;9.216;2023-04-04T09:55:52;96001.25;;;3.17;54.99
4590;BME280;2307;48.448;9.216;2023-04-04T09:58:22;95986.38;;;3.26;54.76
4590;BME280;2307;48.448;9.216;2023-04-04T10:00:51;95998.19;;;3.37;53.47
4590;BME280;2307;48.448;9.216;2023-04-04T10:03:17;95998.13;;;3.45;53.19
4590;BME280;2307;48.448;9.216;2023-04-04T10:05:46;95988.41;;;3.53;52.36
4590;BME280;2307;48.448;9.216;2023-04-04T10:08:14;95993.03;;;3.66;52.27
4590;BME280;2307;48.448;9.216;2023-04-04T10:10:45;95997.63;;;3.64;52.38
4590;BME280;2307;48.448;9.216;2023-04-04T10:13:12;96004.19;;;3.60;52.84
4590;BME280;2307;48.448;9.216;2023-04-04T10:15:40;95996.47;;;3.66;52.44
4590;BME280;2307;48.448;9.216;2023-04-04T10:18:10;95992.53;;;3.85;51.57
4590;BME280;2307;48.448;9.216;2023-04-04T10:20:37;96001.56;;;3.97;51.78
4590;BME280;2307;48.448;9.216;2023-04-04T10:23:04;95999.69;;;4.20;52.28
4590;BME280;2307;48.448;9.216;2023-04-04T10:25:30;96002.09;;;4.37;48.70
4590;BME280;2307;48.448;9.216;2023-04-04T10:27:57;95993.13;;;4.60;50.62
4590;BME280;2307;48.448;9.216;2023-04-04T10:30:23;95977.16;;;4.70;49.67
4590;BME280;2307;48.448;9.216;2023-04-04T10:32:52;95996.28;;;4.85;49.99
4590;BME280;2307;48.448;9.216;2023-04-04T10:35:23;95994.94;;;5.10;50.06
4590;BME280;2307;48.448;9.216;2023-04-04T10:37:53;95985.81;;;5.27;47.30
4590;BME280;2307;48.448;9.216;2023-04-04T10:40:23;95993.25;;;5.45;46.61
4590;BME280;2307;48.448;9.216;2023-04-04T10:42:51;95984.78;;;5.71;45.93
4590;BME280;2307;48.448;9.216;2023-04-04T10:45:18;95988.78;;;5.88;46.93
4590;BME280;2307;48.448;9.216;2023-04-04T10:47:45;95992.19;;;6.16;47.25
4590;BME280;2307;48.448;9.216;2023-04-04T10:50:12;95987.63;;;6.31;45.80
4590;BME280;2307;48.448;9.216;2023-04-04T10:52:41;95990.66;;;6.28;43.27
4590;BME280;2307;48.448;9.216;2023-04-04T10:55:09;95991.78;;;6.54;44.99
4590;BME280;2307;48.448;9.216;2023-04-04T10:57:37;95981.97;;;6.69;42.90
4590;BME280;2307;48.448;9.216;2023-04-04T11:00:06;95985.00;;;6.72;43.62
4590;BME280;2307;48.448;9.216;2023-04-04T11:02:49;95975.69;;;6.70;42.08
4590;BME280;2307;48.448;9.216;2023-04-04T11:05:19;95976.59;;;6.90;42.63
4590;BME280;2307;48.448;9.216;2023-04-04T11:07:51;95971.19;;;7.18;42.19
4590;BME280;2307;48.448;9.216;2023-04-04T11:10:20;95972.63;;;7.33;42.96
4590;BME280;2307;48.448;9.216;2023-04-04T11:12:50;95969.41;;;7.31;43.56
4590;BME280;2307;48.448;9.216;2023-04-04T11:15:19;95971.03;;;7.39;41.88
4590;BME280;2307;48.448;9.216;2023-04-04T11:17:53;95964.38;;;7.63;42.74
4590;BME280;2307;48.448;9.216;2023-04-04T11:20:20;95957.50;;;7.68;41.97
4590;BME280;2307;48.448;9.216;2023-04-04T11:22:49;95964.38;;;7.89;41.13
4590;BME280;2307;48.448;9.216;2023-04-04T11:28:13;95962.16;;;7.86;40.43
4590;BME280;2307;48.448;9.216;2023-04-04T11:30:40;95962.75;;;7.88;39.29
4590;BME280;2307;48.448;9.216;2023-04-04T11:33:12;95954.44;;;7.97;40.91
4590;BME280;2307;48.448;9.216;2023-04-04T11:35:39;95949.38;;;8.02;41.30
4590;BME280;2307;48.448;9.216;2023-04-04T11:38:14;95945.31;;;8.00;39.96
4590;BME280;2307;48.448;9.216;2023-04-04T11:40:41;95947.31;;;8.31;40.08
4590;BME280;2307;48.448;9.216;2023-04-04T11:43:09;95946.09;;;8.20;39.87
4590;BME280;2307;48.448;9.216;2023-04-04T11:45:36;95947.91;;;8.39;39.66
4590;BME280;2307;48.448;9.216;2023-04-04T11:48:03;95945.38;;;8.64;40.48
4590;BME280;2307;48.448;9.216;2023-04-04T11:50:33;95944.38;;;8.65;38.37
4590;BME280;2307;48.448;9.216;2023-04-04T11:53:00;95944.31;;;8.78;40.27
4590;BME280;2307;48.448;9.216;2023-04-04T11:55:31;95952.25;;;8.72;38.20
4590;BME280;2307;48.448;9.216;2023-04-04T11:58:04;95959.34;;;8.71;39.35
4590;BME280;2307;48.448;9.216;2023-04-04T12:00:30;95946.72;;;8.80;38.42
4590;BME280;2307;48.448;9.216;2023-04-04T12:02:58;95949.19;;;8.75;39.16
4590;BME280;2307;48.448;9.216;2023-04-04T12:05:25;95950.91;;;9.00;39.89
4590;BME280;2307;48.448;9.216;2023-04-04T12:07:52;95949.00;;;9.07;37.69
4590;BME280;2307;48.448;9.216;2023-04-04T12:10:18;95939.78;;;9.23;37.01
4590;BME280;2307;48.448;9.216;2023-04-04T12:12:46;95936.16;;;9.24;37.52
4590;BME280;2307;48.448;9.216;2023-04-04T12:15:13;95937.25;;;9.41;38.11
4590;BME280;2307;48.448;9.216;2023-04-04T12:17:40;95938.94;;;9.60;38.37
4590;BME280;2307;48.448;9.216;2023-04-04T12:20:08;95933.28;;;9.57;36.91
4590;BME280;2307;48.448;9.216;2023-04-04T12:22:35;95930.78;;;9.62;37.82
4590;BME280;2307;48.448;9.216;2023-04-04T12:25:01;95931.88;;;9.23;37.58
4590;BME280;2307;48.448;9.216;2023-04-04T12:27:30;95941.16;;;9.32;37.65
4590;BME280;2307;48.448;9.216;2023-04-04T12:29:58;95935.97;;;9.75;36.70
4590;BME280;2307;48.448;9.216;2023-04-04T12:32:25;95938.13;;;10.03;36.34
4590;BME280;2307;48.448;9.216;2023-04-04T12:34:52;95920.34;;;9.98;34.41
4590;BME280;2307;48.448;9.216;2023-04-04T12:37:27;95922.47;;;10.08;35.03
4590;BME280;2307;48.448;9.216;2023-04-04T12:39:55;95918.50;;;10.24;37.19
4590;BME280;2307;48.448;9.216;2023-04-04T12:42:22;95919.66;;;10.03;35.65
4590;BME280;2307;48.448;9.216;2023-04-04T12:44:48;95920.53;;;10.22;36.22
4590;BME280;2307;48.448;9.216;2023-04-04T12:47:16;95917.38;;;10.31;33.71
4590;BME280;2307;48.448;9.216;2023-04-04T12:49:45;95906.53;;;10.39;36.00
4590;BME280;2307;48.448;9.216;2023-04-04T12:52:15;95907.84;;;10.78;35.04
4590;BME280;2307;48.448;9.216;2023-04-04T12:54:42;95905.03;;;10.91;34.16
4590;BME280;2307;48.448;9.216;2023-04-04T12:57:08;95899.03;;;11.14;34.51
4590;BME280;2307;48.448;9.216;2023-04-04T12:59:36;95902.41;;;11.33;34.34
4590;BME280;2307;48.448;9.216;2023-04-04T13:02:06;95907.88;;;11.49;33.56
4590;BME280;2307;48.448;9.216;2023-04-04T13:04:34;95906.03;;;11.38;34.89
4590;BME280;2307;48.448;9.216;2023-04-04T13:07:01;95904.25;;;11.32;34.60
4590;BME280;2307;48.448;9.216;2023-04-04T13:09:28;95904.69;;;10.88;34.76
4590;BME280;2307;48.448;9.216;2023-04-04T13:12:00;95895.56;;;11.02;35.94
4590;BME280;2307;48.448;9.216;2023-04-04T13:14:27;95899.22;;;11.01;35.26
4590;BME280;2307;48.448;9.216;2023-04-04T13:17:03;95896.88;;;11.23;35.44
4590;BME280;2307;48.448;9.216;2023-04-04T13:19:31;95895.72;;;10.59;35.60
4590;BME280;2307;48.448;9.216;2023-04-04T13:22:00;95901.69;;;10.36;35.06
4590;BME280;2307;48.448;9.216;2023-04-04T13:24:27;95892.41;;;10.09;34.68
4590;BME280;2307;48.448;9.216;2023-04-04T13:26:54;95887.09;;;10.34;35.78
4590;BME280;2307;48.448;9.216;2023-04-04T13:29:20;95896.03;;;9.90;36.45